createdAt,value
2023-04-18T00:00:52.889Z,231.02
2023-04-18T00:01:52.972Z,230.69
2023-04-18T00:02:53.147Z,230.25
2023-04-18T00:03:53.268Z,230.56
2023-04-18T00:04:53.143Z,230.56
2023-04-18T00:05:52.997Z,229.90
2023-04-18T00:06:53.024Z,230.24
2023-04-18T00:07:53.044Z,230.02
2023-04-18T00:08:53.073Z,229.77
2023-04-18T00:09:53.066Z,229.68
2023-04-18T00:10:53.112Z,229.94
2023-04-18T00:11:53.105Z,229.68
2023-04-18T00:12:53.105Z,230.20
2023-04-18T00:13:53.139Z,230.59
2023-04-18T00:14:53.139Z,230.87
2023-04-18T00:15:53.155Z,229.29
2023-04-18T00:16:53.221Z,229.12
2023-04-18T00:17:53.295Z,229.66
2023-04-18T00:18:53.211Z,229.85
2023-04-18T00:19:53.237Z,229.56
2023-04-18T00:20:53.249Z,229.27
2023-04-18T00:21:53.329Z,229.34
2023-04-18T00:22:53.295Z,228.40
2023-04-18T00:23:53.348Z,229.02
2023-04-18T00:24:53.365Z,228.80
2023-04-18T00:25:53.368Z,229.17
2023-04-18T00:26:53.395Z,229.32
2023-04-18T00:27:53.446Z,228.90
2023-04-18T00:28:53.446Z,228.27
2023-04-18T00:29:53.466Z,229.01
2023-04-18T00:30:53.516Z,228.17
2023-04-18T00:31:53.550Z,228.28
2023-04-18T00:32:53.456Z,228.39
2023-04-18T00:33:53.407Z,228.78
2023-04-18T00:34:53.374Z,229.16
2023-04-18T00:35:53.340Z,228.14
2023-04-18T00:36:53.316Z,229.74
2023-04-18T00:37:53.302Z,228.93
2023-04-18T00:38:53.277Z,228.55
2023-04-18T00:39:53.258Z,228.37
2023-04-18T00:40:53.225Z,228.19
2023-04-18T00:41:53.202Z,228.65
2023-04-18T00:42:53.184Z,228.61
2023-04-18T00:43:53.337Z,228.33
2023-04-18T00:44:53.252Z,228.46
2023-04-18T00:45:53.145Z,228.41
2023-04-18T00:46:53.107Z,227.86
2023-04-18T00:47:53.153Z,228.80
2023-04-18T00:48:53.133Z,228.16
2023-04-18T00:49:53.161Z,228.31
2023-04-18T00:50:53.178Z,227.34
2023-04-18T00:51:53.220Z,228.46
2023-04-18T00:52:53.238Z,227.68
2023-04-18T00:53:53.250Z,227.81
2023-04-18T00:54:53.283Z,227.23
2023-04-18T00:55:53.295Z,227.02
2023-04-18T00:56:53.400Z,226.93
2023-04-18T00:57:53.348Z,227.43
2023-04-18T00:58:53.362Z,227.51
2023-04-18T00:59:53.391Z,227.66
2023-04-18T01:00:53.360Z,227.76
2023-04-18T01:01:53.567Z,227.78
2023-04-18T01:02:53.546Z,228.22
2023-04-18T01:03:53.423Z,227.71
2023-04-18T01:04:53.277Z,227.17
2023-04-18T01:05:53.237Z,227.84
2023-04-18T01:06:53.241Z,228.06
2023-04-18T01:07:53.199Z,227.37
2023-04-18T01:08:53.174Z,227.59
2023-04-18T01:09:53.173Z,226.24
2023-04-18T01:10:53.131Z,227.08
2023-04-18T01:11:53.106Z,227.47
2023-04-18T01:12:53.072Z,226.63
2023-04-18T01:13:53.050Z,227.04
2023-04-18T01:14:53.022Z,227.22
2023-04-18T01:15:53.086Z,226.16
2023-04-18T01:16:53.073Z,226.52
2023-04-18T01:17:53.110Z,227.36
2023-04-18T01:18:53.114Z,226.68
2023-04-18T01:19:53.130Z,226.71
2023-04-18T01:20:53.206Z,226.62
2023-04-18T01:21:53.162Z,226.77
2023-04-18T01:22:53.198Z,226.12
2023-04-18T01:23:53.195Z,227.17
2023-04-18T01:24:53.225Z,226.01
2023-04-18T01:25:53.237Z,226.58
2023-04-18T01:26:53.267Z,226.91
2023-04-18T01:27:53.293Z,225.74
2023-04-18T01:28:53.310Z,226.36
2023-04-18T01:29:53.347Z,226.31
2023-04-18T01:30:53.403Z,226.02
2023-04-18T01:31:53.405Z,225.70
2023-04-18T01:32:53.497Z,225.28
2023-04-18T01:33:53.448Z,226.19
2023-04-18T01:34:53.473Z,226.09
2023-04-18T01:35:53.518Z,225.43
2023-04-18T01:36:53.532Z,225.74
2023-04-18T01:37:53.556Z,225.88
2023-04-18T01:38:53.597Z,225.53
2023-04-18T01:39:53.603Z,225.79
2023-04-18T01:40:53.640Z,225.47
2023-04-18T01:41:53.697Z,226.06
2023-04-18T01:42:53.675Z,226.46
2023-04-18T01:43:53.697Z,224.95
2023-04-18T01:44:53.699Z,225.50
2023-04-18T01:45:53.716Z,224.84
2023-04-18T01:46:53.855Z,225.52
2023-04-18T01:47:53.770Z,225.33
2023-04-18T01:48:53.778Z,224.62
2023-04-18T01:49:53.801Z,226.19
2023-04-18T01:50:53.812Z,224.49
2023-04-18T01:51:53.826Z,224.60
2023-04-18T01:52:53.852Z,225.13
2023-04-18T01:53:53.870Z,225.23
2023-04-18T01:54:53.893Z,224.86
2023-04-18T01:55:53.938Z,225.31
2023-04-18T01:56:53.941Z,225.43
2023-04-18T01:57:53.965Z,225.32
2023-04-18T01:58:53.998Z,223.88
2023-04-18T01:59:53.966Z,224.00
2023-04-18T02:00:53.976Z,224.20
2023-04-18T02:01:53.966Z,224.30
2023-04-18T02:02:53.966Z,224.27
2023-04-18T02:03:54.212Z,224.48
2023-04-18T02:04:53.836Z,224.44
2023-04-18T02:05:53.805Z,224.59
2023-04-18T02:06:53.766Z,224.00
2023-04-18T02:07:53.740Z,223.65
2023-04-18T02:08:53.710Z,223.93
2023-04-18T02:09:53.684Z,224.24
2023-04-18T02:10:53.656Z,223.66
2023-04-18T02:11:53.619Z,224.67
2023-04-18T02:12:53.591Z,223.08
2023-04-18T02:13:53.619Z,223.25
2023-04-18T02:14:53.618Z,224.03
2023-04-18T02:15:53.650Z,224.18
2023-04-18T02:16:53.734Z,223.63
2023-04-18T02:17:53.728Z,223.67
2023-04-18T02:18:53.714Z,223.67
2023-04-18T02:19:53.735Z,222.55
2023-04-18T02:20:53.768Z,223.39
2023-04-18T02:21:53.772Z,223.42
2023-04-18T02:22:53.796Z,223.54
2023-04-18T02:23:53.847Z,223.62
2023-04-18T02:24:53.853Z,223.01
2023-04-18T02:25:53.868Z,222.62
2023-04-18T02:26:53.873Z,222.99
2023-04-18T02:27:53.908Z,222.76
2023-04-18T02:28:53.938Z,221.93
2023-04-18T02:29:53.959Z,223.53
2023-04-18T02:30:53.993Z,223.12
2023-04-18T02:31:54.053Z,223.01
2023-04-18T02:32:54.041Z,223.16
2023-04-18T02:33:54.065Z,222.78
2023-04-18T02:34:54.086Z,222.40
2023-04-18T02:35:54.140Z,222.73
2023-04-18T02:36:54.138Z,222.70
2023-04-18T02:37:54.175Z,222.55
2023-04-18T02:38:54.200Z,222.42
2023-04-18T02:39:54.247Z,221.99
2023-04-18T02:40:54.248Z,221.38
2023-04-18T02:41:54.290Z,221.37
2023-04-18T02:42:54.315Z,221.94
2023-04-18T02:43:54.323Z,223.25
2023-04-18T02:44:54.352Z,221.78
2023-04-18T02:45:54.401Z,221.78
2023-04-18T02:46:54.350Z,221.90
2023-04-18T02:47:56.470Z,222.03
2023-04-18T02:48:54.298Z,222.49
2023-04-18T02:49:54.277Z,222.50
2023-04-18T02:50:54.286Z,222.49
2023-04-18T02:51:54.317Z,222.09
2023-04-18T02:52:54.328Z,221.93
2023-04-18T02:53:54.366Z,221.62
2023-04-18T02:54:54.329Z,221.74
2023-04-18T02:55:54.298Z,221.76
2023-04-18T02:56:54.274Z,222.01
2023-04-18T02:57:54.268Z,206.89
2023-04-18T02:58:54.225Z,197.31
2023-04-18T02:59:54.186Z,190.76
2023-04-18T03:00:54.261Z,187.48
2023-04-18T03:01:54.165Z,183.06
2023-04-18T03:02:54.178Z,178.25
2023-04-18T03:03:54.082Z,173.35
2023-04-18T03:04:54.083Z,164.04
2023-04-18T03:05:54.073Z,160.30
2023-04-18T03:06:54.135Z,152.06
2023-04-18T03:07:54.176Z,145.53
2023-04-18T03:08:54.223Z,138.54
2023-04-18T03:09:54.287Z,132.71
2023-04-18T03:10:56.102Z,129.51
2023-04-18T03:11:54.646Z,124.03
2023-04-18T03:12:54.431Z,119.81
2023-04-18T03:13:54.472Z,116.90
2023-04-18T03:14:54.508Z,113.23
2023-04-18T03:15:54.586Z,110.02
2023-04-18T03:16:55.397Z,106.92
2023-04-18T03:17:54.558Z,105.40
2023-04-18T03:18:54.502Z,100.99
2023-04-18T03:19:54.512Z,98.19
2023-04-18T03:20:54.490Z,95.40
2023-04-18T03:21:54.483Z,91.66
2023-04-18T03:22:54.476Z,89.19
2023-04-18T03:23:54.480Z,85.58
2023-04-18T03:24:54.482Z,85.72
2023-04-18T03:25:54.485Z,80.90
2023-04-18T03:26:54.467Z,80.59
2023-04-18T03:27:54.456Z,75.19
2023-04-18T03:28:54.454Z,74.72
2023-04-18T03:29:54.453Z,73.36
2023-04-18T03:30:54.489Z,71.57
2023-04-18T03:31:54.465Z,69.23
2023-04-18T03:32:54.442Z,68.83
2023-04-18T03:33:54.444Z,65.30
2023-04-18T03:34:54.435Z,63.43
2023-04-18T03:35:54.442Z,59.83
2023-04-18T03:36:54.429Z,59.71
2023-04-18T03:37:54.444Z,60.03
2023-04-18T03:38:54.423Z,60.85
2023-04-18T03:39:54.410Z,60.89
2023-04-18T03:40:54.403Z,56.23
2023-04-18T03:41:54.384Z,56.47
2023-04-18T03:42:54.372Z,57.47
2023-04-18T03:43:54.384Z,55.35
2023-04-18T03:44:54.362Z,55.29
2023-04-18T03:45:54.373Z,51.25
2023-04-18T03:46:54.348Z,52.55
2023-04-18T03:47:54.417Z,52.31
2023-04-18T03:48:54.316Z,50.45
2023-04-18T03:49:54.319Z,49.93
2023-04-18T03:50:54.303Z,46.69
2023-04-18T03:51:54.320Z,45.90
2023-04-18T03:52:54.305Z,42.87
2023-04-18T03:53:54.324Z,42.11
2023-04-18T03:54:54.275Z,37.92
2023-04-18T03:55:54.272Z,39.37
2023-04-18T03:56:54.268Z,35.74
2023-04-18T03:57:54.258Z,35.54
2023-04-18T03:58:54.237Z,33.95
2023-04-18T03:59:54.248Z,32.50
2023-04-18T04:00:54.231Z,27.61
2023-04-18T04:01:54.310Z,25.87
2023-04-18T04:02:54.371Z,28.00
2023-04-18T04:03:54.401Z,27.32
2023-04-18T04:04:54.238Z,26.15
2023-04-18T04:05:54.195Z,25.73
2023-04-18T04:06:54.199Z,23.38
2023-04-18T04:07:54.152Z,24.05
2023-04-18T04:08:54.148Z,23.28
2023-04-18T04:09:54.133Z,25.46
2023-04-18T04:10:54.131Z,26.92
2023-04-18T04:11:54.120Z,26.99
2023-04-18T04:12:54.112Z,27.12
2023-04-18T04:13:54.100Z,27.62
2023-04-18T04:14:54.087Z,27.66
2023-04-18T04:15:54.156Z,28.70
2023-04-18T04:16:54.080Z,31.67
2023-04-18T04:17:54.126Z,32.66
2023-04-18T04:18:54.074Z,27.14
2023-04-18T04:19:54.055Z,29.46
2023-04-18T04:20:54.060Z,30.56
2023-04-18T04:21:54.096Z,29.05
2023-04-18T04:22:54.063Z,29.08
2023-04-18T04:23:54.075Z,29.22
2023-04-18T04:24:54.050Z,30.74
2023-04-18T04:25:54.046Z,28.75
2023-04-18T04:26:54.048Z,29.06
2023-04-18T04:27:54.050Z,30.05
2023-04-18T04:28:54.048Z,28.40
2023-04-18T04:29:54.052Z,28.65
2023-04-18T04:30:54.049Z,30.37
2023-04-18T04:31:54.116Z,28.74
2023-04-18T04:32:54.069Z,30.89
2023-04-18T04:33:54.038Z,31.89
2023-04-18T04:34:54.038Z,32.39
2023-04-18T04:35:54.033Z,34.69
2023-04-18T04:36:54.066Z,35.15
2023-04-18T04:37:54.135Z,33.79
2023-04-18T04:38:54.125Z,35.82
2023-04-18T04:39:54.149Z,35.20
2023-04-18T04:40:54.183Z,35.30
2023-04-18T04:41:54.206Z,37.65
2023-04-18T04:42:54.272Z,36.48
2023-04-18T04:43:54.275Z,40.08
2023-04-18T04:44:54.340Z,40.72
2023-04-18T04:45:54.357Z,42.89
2023-04-18T04:46:54.406Z,42.86
2023-04-18T04:47:54.419Z,45.58
2023-04-18T04:48:54.456Z,46.62
2023-04-18T04:49:54.480Z,48.49
2023-04-18T04:50:54.505Z,51.84
2023-04-18T04:51:54.542Z,53.67
2023-04-18T04:52:54.575Z,54.38
2023-04-18T04:53:54.609Z,55.67
2023-04-18T04:54:54.642Z,55.48
2023-04-18T04:55:54.675Z,53.12
2023-04-18T04:56:54.695Z,54.61
2023-04-18T04:57:54.727Z,55.47
2023-04-18T04:58:54.779Z,53.51
2023-04-18T04:59:54.801Z,52.57
2023-04-18T05:00:54.959Z,49.27
2023-04-18T05:01:54.886Z,50.72
2023-04-18T05:02:55.006Z,47.82
2023-04-18T05:03:55.014Z,46.90
2023-04-18T05:04:54.989Z,47.19
2023-04-18T05:05:55.033Z,47.08
2023-04-18T05:06:55.076Z,48.74
2023-04-18T05:07:55.113Z,46.68
2023-04-18T05:08:55.167Z,46.18
2023-04-18T05:09:55.184Z,45.55
2023-04-18T05:10:55.207Z,46.76
2023-04-18T05:11:55.258Z,44.26
2023-04-18T05:12:55.303Z,44.79
2023-04-18T05:13:55.291Z,44.85
2023-04-18T05:14:55.310Z,44.91
2023-04-18T05:15:55.293Z,44.89
2023-04-18T05:16:55.306Z,44.78
2023-04-18T05:17:55.307Z,44.28
2023-04-18T05:18:55.294Z,45.08
2023-04-18T05:19:55.301Z,42.83
2023-04-18T05:20:55.297Z,44.46
2023-04-18T05:21:55.293Z,41.09
2023-04-18T05:22:55.298Z,40.85
2023-04-18T05:23:55.288Z,34.13
2023-04-18T05:24:55.297Z,31.16
2023-04-18T05:25:55.283Z,29.30
2023-04-18T05:26:55.296Z,25.85
2023-04-18T05:27:55.335Z,27.67
2023-04-18T05:28:55.374Z,25.42
2023-04-18T05:29:55.402Z,24.80
2023-04-18T05:30:55.424Z,24.87
2023-04-18T05:31:55.384Z,21.93
2023-04-18T05:32:55.449Z,29.16
2023-04-18T05:33:55.424Z,43.81
2023-04-18T05:34:55.378Z,68.77
2023-04-18T05:35:55.376Z,91.66
2023-04-18T05:36:55.364Z,109.92
2023-04-18T05:37:55.372Z,119.69
2023-04-18T05:38:55.357Z,130.08
2023-04-18T05:39:55.337Z,142.16
2023-04-18T05:40:55.336Z,146.93
2023-04-18T05:41:55.321Z,153.83
2023-04-18T05:42:55.311Z,154.19
2023-04-18T05:44:04.676Z,156.35
2023-04-18T05:44:56.282Z,154.69
2023-04-18T05:45:57.646Z,158.14
2023-04-18T05:46:55.682Z,166.98
2023-04-18T05:47:55.599Z,182.85
2023-04-18T05:48:55.571Z,209.59
2023-04-18T05:49:55.643Z,215.60
2023-04-18T05:50:55.741Z,224.44
2023-04-18T05:51:55.741Z,233.07
2023-04-18T05:52:55.785Z,210.72
2023-04-18T05:53:55.880Z,93.48
2023-04-18T05:54:55.826Z,49.29
2023-04-18T05:55:55.824Z,37.57
2023-04-18T05:56:55.872Z,23.17
2023-04-18T05:57:55.923Z,22.45
2023-04-18T05:58:56.005Z,18.33
2023-04-18T05:59:56.048Z,22.06
2023-04-18T06:00:56.141Z,24.92
2023-04-18T06:01:56.218Z,25.00
2023-04-18T06:02:56.463Z,30.53
2023-04-18T06:03:56.409Z,42.02
2023-04-18T06:04:56.459Z,48.96
2023-04-18T06:05:56.352Z,49.37
2023-04-18T06:06:56.304Z,51.79
2023-04-18T06:07:56.325Z,58.79
2023-04-18T06:08:56.324Z,75.38
2023-04-18T06:09:56.335Z,105.68
2023-04-18T06:10:56.341Z,117.77
2023-04-18T06:11:56.340Z,110.15
2023-04-18T06:12:56.328Z,98.11
2023-04-18T06:13:56.359Z,91.26
2023-04-18T06:14:56.346Z,80.46
2023-04-18T06:15:56.373Z,77.85
2023-04-18T06:16:56.353Z,77.86
2023-04-18T06:17:56.451Z,77.95
2023-04-18T06:18:56.986Z,82.03
2023-04-18T06:19:56.481Z,86.95
2023-04-18T06:20:56.586Z,91.49
2023-04-18T06:21:56.605Z,83.91
2023-04-18T06:22:56.657Z,78.08
2023-04-18T06:23:56.782Z,76.97
2023-04-18T06:24:56.799Z,80.41
2023-04-18T06:25:56.849Z,85.81
2023-04-18T06:26:56.960Z,83.41
2023-04-18T06:27:56.984Z,85.29
2023-04-18T06:28:57.069Z,87.34
2023-04-18T06:29:57.120Z,86.86
2023-04-18T06:30:57.200Z,85.53
2023-04-18T06:31:57.279Z,85.89
2023-04-18T06:32:57.253Z,87.26
2023-04-18T06:33:57.232Z,89.47
2023-04-18T06:34:57.303Z,91.17
2023-04-18T06:35:57.260Z,94.79
2023-04-18T06:36:57.256Z,104.58
2023-04-18T06:37:57.254Z,113.90
2023-04-18T06:38:57.327Z,139.44
2023-04-18T06:39:57.395Z,150.81
2023-04-18T06:40:57.268Z,160.27
2023-04-18T06:41:57.271Z,170.44
2023-04-18T06:42:57.270Z,181.56
2023-04-18T06:44:02.837Z,181.97
2023-04-18T06:44:58.260Z,182.32
2023-04-18T06:45:57.303Z,184.74
2023-04-18T06:46:57.259Z,182.90
2023-04-18T06:47:57.319Z,154.50
2023-04-18T06:48:57.317Z,131.50
2023-04-18T06:49:57.250Z,124.70
2023-04-18T06:50:57.254Z,120.44
2023-04-18T06:51:57.248Z,119.01
2023-04-18T06:52:57.263Z,115.92
2023-04-18T06:53:57.247Z,113.10
2023-04-18T06:54:57.242Z,108.04
2023-04-18T06:55:57.238Z,109.18
2023-04-18T06:56:57.248Z,103.99
2023-04-18T06:57:57.243Z,93.11
2023-04-18T06:58:57.252Z,92.68
2023-04-18T06:59:57.248Z,96.74
2023-04-18T07:00:57.289Z,90.66
2023-04-18T07:01:57.277Z,82.25
2023-04-18T07:02:57.397Z,76.34
2023-04-18T07:03:57.413Z,71.34
2023-04-18T07:04:57.329Z,62.93
2023-04-18T07:05:57.347Z,52.67
2023-04-18T07:06:57.391Z,50.96
2023-04-18T07:07:57.436Z,30.09
2023-04-18T07:08:57.479Z,26.34
2023-04-18T07:09:57.512Z,18.78
2023-04-18T07:10:57.548Z,22.01
2023-04-18T07:11:57.671Z,27.49
2023-04-18T07:12:57.642Z,31.37
2023-04-18T07:13:57.682Z,25.00
2023-04-18T07:14:57.734Z,27.67
2023-04-18T07:15:57.784Z,25.00
2023-04-18T07:16:57.900Z,25.24
2023-04-18T07:17:57.879Z,25.32
2023-04-18T07:18:57.902Z,25.34
2023-04-18T07:19:57.932Z,25.36
2023-04-18T07:20:57.981Z,25.26
2023-04-18T07:21:57.990Z,19.25
2023-04-18T07:22:57.994Z,16.72
2023-04-18T07:23:58.009Z,11.77
2023-04-18T07:24:57.994Z,10.12
2023-04-18T07:25:57.999Z,8.85
2023-04-18T07:26:58.007Z,6.67
2023-04-18T07:27:58.097Z,10.29
2023-04-18T07:28:58.009Z,15.03
2023-04-18T07:29:57.999Z,26.32
2023-04-18T07:30:58.056Z,25.63
2023-04-18T07:31:57.993Z,25.42
2023-04-18T07:32:58.006Z,26.52
2023-04-18T07:33:58.004Z,26.91
2023-04-18T07:34:58.007Z,27.69
2023-04-18T07:35:58.023Z,33.03
2023-04-18T07:36:58.022Z,54.67
2023-04-18T07:37:58.017Z,79.76
2023-04-18T07:38:58.028Z,92.15
2023-04-18T07:39:58.040Z,92.77
2023-04-18T07:40:58.008Z,97.68
2023-04-18T07:41:58.009Z,110.15
2023-04-18T07:42:58.002Z,132.24
2023-04-18T07:43:58.147Z,168.07
2023-04-18T07:44:57.989Z,181.16
2023-04-18T07:45:58.034Z,191.20
2023-04-18T07:46:57.964Z,201.62
2023-04-18T07:47:57.979Z,209.06
2023-04-18T07:48:57.955Z,211.06
2023-04-18T07:49:57.927Z,215.81
2023-04-18T07:50:57.928Z,218.99
2023-04-18T07:51:57.917Z,221.86
2023-04-18T07:52:57.962Z,224.71
2023-04-18T07:53:57.994Z,226.41
2023-04-18T07:54:58.035Z,227.83
2023-04-18T07:55:58.070Z,228.49
2023-04-18T07:56:58.116Z,228.98
2023-04-18T07:57:58.108Z,229.14
2023-04-18T07:58:58.095Z,230.09
2023-04-18T07:59:58.256Z,231.64
2023-04-18T08:00:58.043Z,230.53
2023-04-18T08:01:58.073Z,228.58
2023-04-18T08:02:58.173Z,226.55
2023-04-18T08:03:58.059Z,223.42
2023-04-18T08:04:58.239Z,220.33
2023-04-18T08:05:57.954Z,218.21
2023-04-18T08:06:57.908Z,215.72
2023-04-18T08:07:57.882Z,212.48
2023-04-18T08:08:57.862Z,210.38
2023-04-18T08:09:57.836Z,208.42
2023-04-18T08:10:57.814Z,206.40
2023-04-18T08:11:57.780Z,202.91
2023-04-18T08:12:57.756Z,198.46
2023-04-18T08:13:57.717Z,198.80
2023-04-18T08:14:57.715Z,199.00
2023-04-18T08:15:57.849Z,200.45
2023-04-18T08:16:57.726Z,198.24
2023-04-18T08:17:57.780Z,198.25
2023-04-18T08:18:57.798Z,196.02
2023-04-18T08:19:57.842Z,191.64
2023-04-18T08:20:57.872Z,195.02
2023-04-18T08:21:57.907Z,192.55
2023-04-18T08:23:07.552Z,187.87
2023-04-18T08:23:58.893Z,188.08
2023-04-18T08:25:05.059Z,189.22
2023-04-18T08:25:58.872Z,188.12
2023-04-18T08:26:57.832Z,189.85
2023-04-18T08:27:57.813Z,192.76
2023-04-18T08:28:57.813Z,195.37
2023-04-18T08:29:57.786Z,188.35
2023-04-18T08:30:57.745Z,190.15
2023-04-18T08:31:57.931Z,194.15
2023-04-18T08:32:57.737Z,196.26
2023-04-18T08:33:57.688Z,188.39
2023-04-18T08:34:57.658Z,189.77
2023-04-18T08:35:57.628Z,190.29
2023-04-18T08:36:57.606Z,189.78
2023-04-18T08:37:57.563Z,184.82
2023-04-18T08:38:57.524Z,179.89
2023-04-18T08:39:57.525Z,177.73
2023-04-18T08:40:57.466Z,173.38
2023-04-18T08:41:57.449Z,167.44
2023-04-18T08:42:57.410Z,161.99
2023-04-18T08:43:57.386Z,164.78
2023-04-18T08:44:57.368Z,164.20
2023-04-18T08:45:57.371Z,165.02
2023-04-18T08:46:57.309Z,165.18
2023-04-18T08:47:57.355Z,168.54
2023-04-18T08:48:57.248Z,169.55
2023-04-18T08:49:57.238Z,166.48
2023-04-18T08:50:57.240Z,170.98
2023-04-18T08:51:57.245Z,175.67
2023-04-18T08:52:57.253Z,177.79
2023-04-18T08:53:57.281Z,181.30
2023-04-18T08:54:57.242Z,179.60
2023-04-18T08:55:57.420Z,180.09
2023-04-18T08:56:57.180Z,181.50
2023-04-18T08:57:57.148Z,182.49
2023-04-18T08:58:57.115Z,184.60
2023-04-18T08:59:57.089Z,186.08
2023-04-18T09:00:57.124Z,191.39
2023-04-18T09:01:57.260Z,193.85
2023-04-18T09:02:57.430Z,198.22
2023-04-18T09:03:57.059Z,198.74
2023-04-18T09:04:56.929Z,199.97
2023-04-18T09:05:56.895Z,199.38
2023-04-18T09:06:56.872Z,198.41
2023-04-18T09:07:56.828Z,199.75
2023-04-18T09:08:56.809Z,200.35
2023-04-18T09:09:56.780Z,199.70
2023-04-18T09:10:56.735Z,200.14
2023-04-18T09:11:56.710Z,199.54
2023-04-18T09:12:56.703Z,195.19
2023-04-18T09:13:56.705Z,196.75
2023-04-18T09:14:56.744Z,196.05
2023-04-18T09:15:56.714Z,192.65
2023-04-18T09:16:56.744Z,195.41
2023-04-18T09:17:56.811Z,198.70
2023-04-18T09:18:56.736Z,201.64
2023-04-18T09:19:56.927Z,200.73
2023-04-18T09:20:56.744Z,201.22
2023-04-18T09:21:56.689Z,201.34
2023-04-18T09:22:56.678Z,201.33
2023-04-18T09:23:56.623Z,202.31
2023-04-18T09:24:56.586Z,206.71
2023-04-18T09:25:56.565Z,215.57
2023-04-18T09:26:56.518Z,220.18
2023-04-18T09:27:56.489Z,222.77
2023-04-18T09:28:56.453Z,224.98
2023-04-18T09:29:57.935Z,227.56
2023-04-18T09:30:56.416Z,230.62
2023-04-18T09:31:56.360Z,233.19
2023-04-18T09:32:56.368Z,234.44
2023-04-18T09:33:56.330Z,236.59
2023-04-18T09:34:56.269Z,238.34
2023-04-18T09:35:56.311Z,240.52
2023-04-18T09:36:56.248Z,241.86
2023-04-18T09:37:56.205Z,243.84
2023-04-18T09:38:57.040Z,245.94
2023-04-18T09:39:56.145Z,247.66
2023-04-18T09:40:56.140Z,249.10
2023-04-18T09:41:56.135Z,249.19
2023-04-18T09:42:56.125Z,250.00
2023-04-18T09:43:56.081Z,250.24
2023-04-18T09:44:56.942Z,250.52
2023-04-18T09:45:56.038Z,251.22
2023-04-18T09:46:56.021Z,252.96
2023-04-18T09:47:56.001Z,256.00
2023-04-18T09:48:55.916Z,249.77
2023-04-18T09:49:55.876Z,248.30
2023-04-18T09:50:55.856Z,247.23
2023-04-18T09:51:55.848Z,244.35
2023-04-18T09:52:55.788Z,240.91
2023-04-18T09:53:55.755Z,241.19
2023-04-18T09:54:55.740Z,241.98
2023-04-18T09:55:57.611Z,238.58
2023-04-18T09:56:55.653Z,237.91
2023-04-18T09:57:55.622Z,237.14
2023-04-18T09:58:55.611Z,240.29
2023-04-18T09:59:55.594Z,236.81
2023-04-18T10:00:55.563Z,230.96
2023-04-18T10:01:55.602Z,228.85
2023-04-18T10:02:55.572Z,228.85
2023-04-18T10:03:55.524Z,225.70
2023-04-18T10:04:55.510Z,221.85
2023-04-18T10:05:57.690Z,219.55
2023-04-18T10:06:55.384Z,219.82
2023-04-18T10:07:55.360Z,219.86
2023-04-18T10:08:55.310Z,216.37
2023-04-18T10:09:55.306Z,208.34
2023-04-18T10:10:55.265Z,208.10
2023-04-18T10:11:55.229Z,204.44
2023-04-18T10:12:55.204Z,192.24
2023-04-18T10:13:55.167Z,190.30
2023-04-18T10:14:55.130Z,187.76
2023-04-18T10:15:55.112Z,181.41
2023-04-18T10:16:55.062Z,174.85
2023-04-18T10:18:04.331Z,161.69
2023-04-18T10:18:55.998Z,161.77
2023-04-18T10:19:54.979Z,161.83
2023-04-18T10:20:54.942Z,161.88
2023-04-18T10:21:54.918Z,161.44
2023-04-18T10:22:54.872Z,161.14
2023-04-18T10:23:54.844Z,156.78
2023-04-18T10:24:54.812Z,156.78
2023-04-18T10:25:54.782Z,150.08
2023-04-18T10:26:54.748Z,147.33
2023-04-18T10:27:54.712Z,154.64
2023-04-18T10:28:55.058Z,151.63
2023-04-18T10:29:54.642Z,147.44
2023-04-18T10:30:54.617Z,150.66
2023-04-18T10:31:54.665Z,145.98
2023-04-18T10:32:54.612Z,143.91
2023-04-18T10:34:03.888Z,138.19
2023-04-18T10:34:54.468Z,138.27
2023-04-18T10:35:54.462Z,136.78
2023-04-18T10:36:54.396Z,136.34
2023-04-18T10:37:54.367Z,138.83
2023-04-18T10:38:54.327Z,139.83
2023-04-18T10:39:54.297Z,146.40
2023-04-18T10:40:54.266Z,151.48
2023-04-18T10:41:54.232Z,156.49
2023-04-18T10:42:54.214Z,163.79
2023-04-18T10:43:54.204Z,166.06
2023-04-18T10:44:54.151Z,168.31
2023-04-18T10:45:54.138Z,171.24
2023-04-18T10:46:54.132Z,174.24
2023-04-18T10:47:54.083Z,174.67
2023-04-18T10:48:54.035Z,180.08
2023-04-18T10:49:53.988Z,173.10
2023-04-18T10:50:53.956Z,162.17
2023-04-18T10:51:53.924Z,162.28
2023-04-18T10:52:53.886Z,162.84
2023-04-18T10:53:53.856Z,156.31
2023-04-18T10:54:53.819Z,150.56
2023-04-18T10:55:53.799Z,148.15
2023-04-18T10:56:53.783Z,145.78
2023-04-18T10:57:53.729Z,146.72
2023-04-18T10:58:53.695Z,147.72
2023-04-18T10:59:53.638Z,146.15
2023-04-18T11:00:53.626Z,146.24
2023-04-18T11:01:53.596Z,142.40
2023-04-18T11:02:53.821Z,143.32
2023-04-18T11:03:53.648Z,139.70
2023-04-18T11:04:53.458Z,141.91
2023-04-18T11:05:53.416Z,142.57
2023-04-18T11:06:53.395Z,146.25
2023-04-18T11:07:53.374Z,147.61
2023-04-18T11:08:53.324Z,147.34
2023-04-18T11:09:53.292Z,145.43
2023-04-18T11:10:53.254Z,144.97
2023-04-18T11:11:53.285Z,148.37
2023-04-18T11:12:53.230Z,153.73
2023-04-18T11:13:53.184Z,154.77
2023-04-18T11:14:53.138Z,156.51
2023-04-18T11:15:53.112Z,159.33
2023-04-18T11:16:53.119Z,164.89
2023-04-18T11:17:53.083Z,164.98
2023-04-18T11:18:53.017Z,158.64
2023-04-18T11:19:52.974Z,146.93
2023-04-18T11:20:52.934Z,145.59
2023-04-18T11:21:52.932Z,142.88
2023-04-18T11:22:52.872Z,131.64
2023-04-18T11:23:52.854Z,131.37
2023-04-18T11:24:52.795Z,133.66
2023-04-18T11:25:52.778Z,134.08
2023-04-18T11:26:52.722Z,136.26
2023-04-18T11:27:52.691Z,143.75
2023-04-18T11:28:52.665Z,152.90
2023-04-18T11:29:52.600Z,166.50
2023-04-18T11:30:52.566Z,169.86
2023-04-18T11:31:53.034Z,170.07
2023-04-18T11:32:52.529Z,171.37
2023-04-18T11:33:52.473Z,174.99
2023-04-18T11:34:52.395Z,180.43
2023-04-18T11:35:52.362Z,188.06
2023-04-18T11:36:52.332Z,188.70
2023-04-18T11:37:52.287Z,182.19
2023-04-18T11:38:52.252Z,186.47
2023-04-18T11:39:52.208Z,186.65
2023-04-18T11:40:52.170Z,194.62
2023-04-18T11:41:52.161Z,196.42
2023-04-18T11:42:52.102Z,194.34
2023-04-18T11:43:52.094Z,184.37
2023-04-18T11:44:52.043Z,178.56
2023-04-18T11:45:52.054Z,178.90
2023-04-18T11:46:51.992Z,170.87
2023-04-18T11:47:51.983Z,174.04
2023-04-18T11:48:51.911Z,177.76
2023-04-18T11:49:51.895Z,177.83
2023-04-18T11:50:51.852Z,177.85
2023-04-18T11:51:51.852Z,174.96
2023-04-18T11:52:51.798Z,176.04
2023-04-18T11:53:51.748Z,177.29
2023-04-18T11:54:51.712Z,175.95
2023-04-18T11:55:51.681Z,170.81
2023-04-18T11:56:51.649Z,155.37
2023-04-18T11:57:51.599Z,164.43
2023-04-18T11:58:51.589Z,172.93
2023-04-18T11:59:51.550Z,163.36
2023-04-18T12:00:51.481Z,172.63
2023-04-18T12:01:53.100Z,172.75
2023-04-18T12:02:51.574Z,170.52
2023-04-18T12:03:51.482Z,168.53
2023-04-18T12:04:51.566Z,167.62
2023-04-18T12:05:51.480Z,169.16
2023-04-18T12:06:51.281Z,163.88
2023-04-18T12:07:51.227Z,167.10
2023-04-18T12:08:52.384Z,165.79
2023-04-18T12:09:51.147Z,157.74
2023-04-18T12:10:51.121Z,158.74
2023-04-18T12:11:51.097Z,157.68
2023-04-18T12:12:51.053Z,152.30
2023-04-18T12:13:51.010Z,156.33
2023-04-18T12:14:50.975Z,155.70
2023-04-18T12:15:51.098Z,159.74
2023-04-18T12:16:50.931Z,160.28
2023-04-18T12:17:51.058Z,158.54
2023-04-18T12:18:50.855Z,155.83
2023-04-18T12:19:50.839Z,151.10
2023-04-18T12:20:50.861Z,151.31
2023-04-18T12:21:50.786Z,152.11
2023-04-18T12:22:50.735Z,149.89
2023-04-18T12:23:50.707Z,149.24
2023-04-18T12:24:50.671Z,148.59
2023-04-18T12:25:50.638Z,149.57
2023-04-18T12:26:50.640Z,152.61
2023-04-18T12:27:50.580Z,155.80
2023-04-18T12:28:50.545Z,156.81
2023-04-18T12:29:50.533Z,160.24
2023-04-18T12:30:50.488Z,160.49
2023-04-18T12:31:50.512Z,162.52
2023-04-18T12:32:50.589Z,166.71
2023-04-18T12:33:50.385Z,172.81
2023-04-18T12:34:50.343Z,175.16
2023-04-18T12:35:50.310Z,176.87